aviador You're here:

KLFI Decoded Metar

HAMPTON in VA, USA
Report Time2018-06-23 05:56:00
UTC Time2018-06-23 06:06:30
Flight Rules vfr VFR
Wind250° at 08 kt
W.Decomp.*RWY 26: 8.0 kt HW 0 kt LCW
W.Rank250° ranks 11
Current wind is above 250° avg. (7.8)
Visibility9999 m
Phenomena:N/A
Clouds:Broken 110 Hf
Broken 130 Hf
Ceiling11,000 ft
Temp22°C (ISA +7)
Dew Point22°C (100% RH)
QNH1010 hPa
Density Alt1,276 ft
Elevation10 ft
Report Wrong Elevation
Raw Report
KLFI 230556Z 25008KT 10SM BKN110 BKN130 22/22 A2983 RMK AO2A
SLP108 P0000 60109 T02190219 10250 20205 50004=

Extra information for KLFI:More info

Metar Taf Metar & Taf Last 4 Metars F.Rules Stats Wind Profile Meteogram Temp Stats Airport Information Weather charts Add Link Nearby VenuesMetar ALERT Operation Metar Decoded Social comments

AIRNAV info for KLFI